createdAt,value
2018-07-23T00:00:45.609Z,99.90
2018-07-23T00:05:30.238Z,99.90
2018-07-23T00:10:14.634Z,99.90
2018-07-23T00:14:59.037Z,99.90
2018-07-23T00:19:43.366Z,99.90
2018-07-23T00:24:27.871Z,99.90
2018-07-23T00:29:12.228Z,99.90
2018-07-23T00:33:56.681Z,99.90
2018-07-23T00:38:41.070Z,99.90
2018-07-23T00:43:25.432Z,99.90
2018-07-23T00:48:09.723Z,99.90
2018-07-23T00:52:54.082Z,99.90
2018-07-23T00:57:38.449Z,99.90
2018-07-23T01:02:22.846Z,99.90
2018-07-23T01:07:07.420Z,99.90
2018-07-23T01:11:51.877Z,99.90
2018-07-23T01:16:36.233Z,99.90
2018-07-23T01:21:20.650Z,99.90
2018-07-23T01:26:05.090Z,99.90
2018-07-23T01:30:49.425Z,99.90
2018-07-23T01:35:33.789Z,99.90
2018-07-23T01:40:18.210Z,99.90
2018-07-23T01:45:02.589Z,99.90
2018-07-23T01:49:47.061Z,99.90
2018-07-23T01:54:31.400Z,99.90
2018-07-23T01:59:15.737Z,99.90
2018-07-23T02:04:00.116Z,99.90
2018-07-23T02:08:44.440Z,99.90
2018-07-23T02:13:29.025Z,99.90
2018-07-23T02:18:13.504Z,99.90
2018-07-23T02:22:57.829Z,99.90
2018-07-23T02:27:42.165Z,99.90
2018-07-23T02:32:26.503Z,99.90
2018-07-23T02:37:10.921Z,99.90
2018-07-23T02:41:55.291Z,99.90
2018-07-23T02:46:39.638Z,99.90
2018-07-23T02:51:24.088Z,99.90
2018-07-23T02:56:08.549Z,99.90
2018-07-23T03:00:52.886Z,99.90
2018-07-23T03:05:37.339Z,99.90
2018-07-23T03:10:21.761Z,99.90
2018-07-23T03:15:07.303Z,99.90
2018-07-23T03:19:51.639Z,99.90
2018-07-23T03:24:36.018Z,99.90
2018-07-23T03:29:20.303Z,99.90
2018-07-23T03:34:04.716Z,99.90
2018-07-23T03:48:16.879Z,99.90
2018-07-23T03:53:01.207Z,99.90
2018-07-23T04:02:29.406Z,99.90
2018-07-23T04:07:13.875Z,99.90
2018-07-23T04:11:58.318Z,99.90
2018-07-23T04:16:42.629Z,99.90
2018-07-23T04:30:54.770Z,99.90
2018-07-23T04:35:39.047Z,99.90
2018-07-23T04:40:23.461Z,99.90
2018-07-23T04:45:07.833Z,99.90
2018-07-23T04:49:52.247Z,99.90
2018-07-23T04:54:36.706Z,99.90
2018-07-23T04:59:21.110Z,99.90
2018-07-23T05:04:05.697Z,99.90
2018-07-23T05:08:50.060Z,99.90
2018-07-23T05:13:34.385Z,99.90
2018-07-23T05:18:18.817Z,99.90
2018-07-23T05:23:03.283Z,99.90
2018-07-23T05:27:47.650Z,99.90
2018-07-23T05:32:31.959Z,99.90
2018-07-23T05:37:16.269Z,99.90
2018-07-23T05:42:00.665Z,99.90
2018-07-23T05:46:45.042Z,99.90
2018-07-23T05:51:29.553Z,99.90
2018-07-23T05:56:14.394Z,99.90
2018-07-23T06:00:59.040Z,99.90
2018-07-23T06:05:43.498Z,99.90
2018-07-23T06:10:28.085Z,99.90
2018-07-23T06:15:12.690Z,99.90
2018-07-23T06:19:57.057Z,99.90
2018-07-23T06:24:41.529Z,99.90
2018-07-23T06:29:25.937Z,99.90
2018-07-23T06:34:10.262Z,99.90
2018-07-23T06:38:54.654Z,99.90
2018-07-23T06:43:39.023Z,99.90
2018-07-23T06:48:23.492Z,99.90
2018-07-23T06:53:08.042Z,99.90
2018-07-23T06:57:52.462Z,99.90
2018-07-23T07:02:36.822Z,99.90
2018-07-23T07:07:21.257Z,99.90
2018-07-23T07:12:05.761Z,99.90
2018-07-23T07:16:50.104Z,99.90
2018-07-23T07:21:34.485Z,99.90
2018-07-23T07:26:18.820Z,99.90
2018-07-23T07:31:03.245Z,99.90
2018-07-23T07:35:47.712Z,99.90
2018-07-23T07:40:32.633Z,99.90
2018-07-23T07:45:17.151Z,99.90
2018-07-23T07:54:45.513Z,98.90
2018-07-23T07:59:29.894Z,95.90
2018-07-23T08:04:14.374Z,96.00
2018-07-23T08:08:58.805Z,93.70
2018-07-23T08:13:43.208Z,92.20
2018-07-23T08:18:27.631Z,92.10
2018-07-23T08:23:12.017Z,90.30
2018-07-23T08:27:56.503Z,88.70
2018-07-23T08:32:41.653Z,87.50
2018-07-23T08:37:26.170Z,86.70
2018-07-23T08:46:54.529Z,84.10
2018-07-23T08:51:38.917Z,81.80
2018-07-23T08:56:23.358Z,80.50
2018-07-23T09:01:07.897Z,78.80
2018-07-23T09:05:52.269Z,77.40
2018-07-23T09:10:36.667Z,74.10
2018-07-23T09:20:05.212Z,71.90
2018-07-23T09:24:49.596Z,70.90
2018-07-23T09:29:34.037Z,71.20
2018-07-23T09:34:20.266Z,68.90
2018-07-23T09:39:09.596Z,68.20
2018-07-23T09:43:54.809Z,68.20
2018-07-23T09:48:39.243Z,64.90
2018-07-23T09:53:23.887Z,64.70
2018-07-23T09:58:08.355Z,61.90
2018-07-23T10:02:53.164Z,62.60
2018-07-23T10:07:37.564Z,61.70
2018-07-23T10:12:21.932Z,60.90
2018-07-23T10:17:06.541Z,60.20
2018-07-23T10:21:50.938Z,58.30
2018-07-23T10:26:35.345Z,59.40
2018-07-23T10:31:19.852Z,58.80
2018-07-23T10:36:04.245Z,57.30
2018-07-23T10:40:49.529Z,57.00
2018-07-23T10:45:33.951Z,58.40
2018-07-23T10:50:18.416Z,58.60
2018-07-23T10:55:02.760Z,57.80
2018-07-23T10:59:47.149Z,57.30
2018-07-23T11:04:31.559Z,57.50
2018-07-23T11:09:16.002Z,56.20
2018-07-23T11:14:00.882Z,57.30
2018-07-23T11:18:45.400Z,56.70
2018-07-23T11:23:29.802Z,55.20
2018-07-23T11:28:14.205Z,55.30
2018-07-23T11:32:59.580Z,55.10
2018-07-23T11:37:44.046Z,54.80
2018-07-23T11:42:28.529Z,55.20
2018-07-23T11:47:13.038Z,56.60
2018-07-23T11:51:57.972Z,58.90
2018-07-23T11:56:42.754Z,55.60
2018-07-23T12:01:27.099Z,54.10
2018-07-23T12:06:11.509Z,55.30
2018-07-23T12:10:55.923Z,51.70
2018-07-23T12:15:40.397Z,52.00
2018-07-23T12:20:24.808Z,53.80
2018-07-23T12:25:09.154Z,54.10
2018-07-23T12:29:53.554Z,55.40
2018-07-23T12:34:37.927Z,57.30
2018-07-23T12:39:22.819Z,56.10
2018-07-23T12:44:07.661Z,56.40
2018-07-23T12:48:52.400Z,57.70
2018-07-23T12:53:37.216Z,55.20
2018-07-23T12:58:24.750Z,55.90
2018-07-23T13:03:09.131Z,55.00
2018-07-23T13:07:54.055Z,54.20
2018-07-23T13:12:38.589Z,50.30
2018-07-23T13:17:23.228Z,52.60
2018-07-23T13:22:07.657Z,53.80
2018-07-23T13:26:52.017Z,53.50
2018-07-23T13:31:36.414Z,52.00
2018-07-23T13:36:20.828Z,51.80
2018-07-23T13:41:05.235Z,53.60
2018-07-23T13:45:49.604Z,54.90
2018-07-23T13:50:34.116Z,54.70
2018-07-23T13:55:18.574Z,53.10
2018-07-23T14:00:02.949Z,52.60
2018-07-23T14:04:47.338Z,54.00
2018-07-23T14:09:31.846Z,54.10
2018-07-23T14:14:16.280Z,53.00
2018-07-23T14:19:00.896Z,52.70
2018-07-23T14:23:45.258Z,52.00
2018-07-23T14:28:29.861Z,51.20
2018-07-23T14:33:14.216Z,50.80
2018-07-23T14:37:58.794Z,52.70
2018-07-23T14:42:43.365Z,53.70
2018-07-23T14:47:27.843Z,52.60
2018-07-23T14:52:12.411Z,52.20
2018-07-23T14:56:56.819Z,53.00
2018-07-23T15:01:41.320Z,53.40
2018-07-23T15:06:25.847Z,54.50
2018-07-23T15:11:10.347Z,53.50
2018-07-23T15:15:54.949Z,52.10
2018-07-23T15:20:39.442Z,52.60
2018-07-23T15:25:24.017Z,50.60
2018-07-23T15:30:08.536Z,51.20
2018-07-23T15:34:52.997Z,50.90
2018-07-23T15:39:37.443Z,51.70
2018-07-23T15:44:29.999Z,51.90
2018-07-23T15:49:14.968Z,51.00
2018-07-23T15:58:43.437Z,50.00
2018-07-23T16:03:27.880Z,50.50
2018-07-23T16:08:12.326Z,48.40
2018-07-23T16:12:56.894Z,47.40
2018-07-23T16:17:41.346Z,47.00
2018-07-23T16:22:25.852Z,47.10
2018-07-23T16:27:10.218Z,46.60
2018-07-23T16:31:54.713Z,46.80
2018-07-23T16:36:39.184Z,45.70
2018-07-23T16:41:23.731Z,45.60
2018-07-23T16:46:08.659Z,45.10
2018-07-23T16:50:53.040Z,45.00
2018-07-23T16:55:37.494Z,45.50
2018-07-23T17:00:21.961Z,46.90
2018-07-23T17:05:06.348Z,45.40
2018-07-23T17:09:50.930Z,45.30
2018-07-23T17:14:35.536Z,44.50
2018-07-23T17:19:19.951Z,43.90
2018-07-23T17:24:04.584Z,44.20
2018-07-23T17:28:49.409Z,43.80
2018-07-23T17:33:34.889Z,44.70
2018-07-23T17:38:19.471Z,44.80
2018-07-23T17:43:03.829Z,45.90
2018-07-23T17:47:48.793Z,47.30
2018-07-23T17:52:33.455Z,49.50
2018-07-23T17:57:17.918Z,51.70
2018-07-23T18:02:02.450Z,53.00
2018-07-23T18:06:46.999Z,54.30
2018-07-23T18:11:31.519Z,55.30
2018-07-23T18:16:16.423Z,56.00
2018-07-23T18:21:00.986Z,56.70
2018-07-23T18:25:45.718Z,56.60
2018-07-23T18:30:30.270Z,57.20
2018-07-23T18:35:14.714Z,58.30
2018-07-23T18:39:59.116Z,58.50
2018-07-23T18:44:43.476Z,61.10
2018-07-23T18:49:47.377Z,60.00
2018-07-23T18:54:32.647Z,63.30
2018-07-23T18:59:17.570Z,64.30
2018-07-23T19:04:02.207Z,66.40
2018-07-23T19:08:46.632Z,67.20
2018-07-23T19:13:31.078Z,68.50
2018-07-23T19:18:15.686Z,69.10
2018-07-23T19:23:00.531Z,70.20
2018-07-23T19:27:46.249Z,70.60
2018-07-23T19:32:31.462Z,71.00
2018-07-23T19:37:16.522Z,71.10
2018-07-23T19:42:01.497Z,72.10
2018-07-23T19:46:47.582Z,72.20
2018-07-23T19:51:33.200Z,72.70
2018-07-23T19:56:18.764Z,72.70
2018-07-23T20:01:03.540Z,72.00
2018-07-23T20:05:49.777Z,72.60
2018-07-23T20:10:34.804Z,73.90
2018-07-23T20:15:19.499Z,73.10
2018-07-23T20:20:04.709Z,73.10
2018-07-23T20:24:49.777Z,73.40
2018-07-23T20:29:34.462Z,73.70
2018-07-23T20:34:19.288Z,73.20
2018-07-23T20:39:04.357Z,74.60
2018-07-23T20:43:49.097Z,74.10
2018-07-23T20:48:33.790Z,75.00
2018-07-23T20:53:19.272Z,76.10
2018-07-23T20:58:03.836Z,76.00
2018-07-23T21:02:48.551Z,76.30
2018-07-23T21:07:33.403Z,76.00
2018-07-23T21:12:18.089Z,75.60
2018-07-23T21:17:02.614Z,75.40
2018-07-23T21:21:47.271Z,75.60
2018-07-23T21:31:16.292Z,76.30
2018-07-23T21:36:01.261Z,76.50
2018-07-23T21:40:46.027Z,77.50
2018-07-23T21:45:30.802Z,79.00
2018-07-23T21:50:15.682Z,80.30
2018-07-23T21:55:00.420Z,81.10
2018-07-23T21:59:45.144Z,82.70
2018-07-23T22:04:29.996Z,84.10
2018-07-23T22:09:14.936Z,85.60
2018-07-23T22:13:59.413Z,86.70
2018-07-23T22:18:43.927Z,87.70
2018-07-23T22:23:28.373Z,89.70
2018-07-23T22:28:12.785Z,90.80
2018-07-23T22:32:57.309Z,92.40
2018-07-23T22:37:41.662Z,94.70
2018-07-23T22:42:27.538Z,96.20
2018-07-23T22:47:12.013Z,97.40
2018-07-23T22:51:56.445Z,96.30
2018-07-23T22:56:40.956Z,96.80
2018-07-23T23:01:25.457Z,97.90
2018-07-23T23:06:09.876Z,98.50
2018-07-23T23:10:54.271Z,98.10
2018-07-23T23:15:38.684Z,97.50
2018-07-23T23:20:23.067Z,97.10
2018-07-23T23:25:07.644Z,97.40
2018-07-23T23:29:51.969Z,97.10
2018-07-23T23:34:36.405Z,98.40
2018-07-23T23:39:20.782Z,99.00
2018-07-23T23:44:05.131Z,99.60
2018-07-23T23:48:49.463Z,99.90
2018-07-23T23:53:33.886Z,99.90
2018-07-23T23:58:18.189Z,99.90
